Sumatra, Montana
Current Conditions -  °F | °C
As of 5:55 PM on Tuesday 21 Oct 2014 (Local Time) from KMVH Reporting Station
Scattered Clouds Scattered Clouds  
Wind Chill: 50°   Ceiling: Unl
Heat Index: 50°   Visibility: 10mi
Dew Point: 41°   Wind: 16mph
Humidity: 71%   Direction: 290°WNW
Pressure: 29.75"   Gusts: 26mph
Location:  46.62°N, 107.55°W
Report Text: KMVH 212355Z AUTO 29014G23KT 10SM FEW070 FEW090 SCT110 10/05 A2975 RMK A01
Loading
Personal Weather Stations






























Interactive Weather Map
Tropical Storm Tracking
New forecast layout! Learn more

10-Day Weather Forecast

Advertisements
Track Severe Weather on mobile